sensor_id;sensor_type;location;lat;lon;timestamp;temperature;humidity
22065;DHT22;11197;53.110;8.468;2022-10-16T00:01:22;13.40;99.90
22065;DHT22;11197;53.110;8.468;2022-10-16T00:03:49;13.40;99.90
22065;DHT22;11197;53.110;8.468;2022-10-16T00:06:17;13.40;99.90
22065;DHT22;11197;53.110;8.468;2022-10-16T00:08:44;13.30;99.90
22065;DHT22;11197;53.110;8.468;2022-10-16T00:11:13;13.30;99.90
22065;DHT22;11197;53.110;8.468;2022-10-16T00:13:41;13.30;99.90
22065;DHT22;11197;53.110;8.468;2022-10-16T00:16:09;13.30;99.90
22065;DHT22;11197;53.110;8.468;2022-10-16T00:18:37;13.30;99.90
22065;DHT22;11197;53.110;8.468;2022-10-16T00:21:05;13.30;99.90
22065;DHT22;11197;53.110;8.468;2022-10-16T00:23:33;13.20;99.90
22065;DHT22;11197;53.110;8.468;2022-10-16T00:26:02;13.20;99.90
22065;DHT22;11197;53.110;8.468;2022-10-16T00:28:28;13.20;99.90
22065;DHT22;11197;53.110;8.468;2022-10-16T00:30:55;13.20;99.90
22065;DHT22;11197;53.110;8.468;2022-10-16T00:33:21;13.20;99.90
22065;DHT22;11197;53.110;8.468;2022-10-16T00:35:48;13.20;99.90
22065;DHT22;11197;53.110;8.468;2022-10-16T00:38:14;13.10;99.90
22065;DHT22;11197;53.110;8.468;2022-10-16T00:40:40;13.10;99.90
22065;DHT22;11197;53.110;8.468;2022-10-16T00:43:13;13.10;99.90
22065;DHT22;11197;53.110;8.468;2022-10-16T00:45:40;13.10;99.90
22065;DHT22;11197;53.110;8.468;2022-10-16T00:48:09;13.00;99.90
22065;DHT22;11197;53.110;8.468;2022-10-16T00:50:36;13.00;99.90
22065;DHT22;11197;53.110;8.468;2022-10-16T00:53:03;13.00;99.90
22065;DHT22;11197;53.110;8.468;2022-10-16T00:55:29;13.00;99.90
22065;DHT22;11197;53.110;8.468;2022-10-16T00:57:56;13.00;99.90
22065;DHT22;11197;53.110;8.468;2022-10-16T01:00:24;13.00;99.90
22065;DHT22;11197;53.110;8.468;2022-10-16T01:02:59;12.90;99.90
22065;DHT22;11197;53.110;8.468;2022-10-16T01:05:33;12.90;99.90
22065;DHT22;11197;53.110;8.468;2022-10-16T01:08:24;12.90;99.90
22065;DHT22;11197;53.110;8.468;2022-10-16T01:11:22;12.90;99.90
22065;DHT22;11197;53.110;8.468;2022-10-16T01:13:59;12.90;99.90
22065;DHT22;11197;53.110;8.468;2022-10-16T01:16:36;12.80;99.90
22065;DHT22;11197;53.110;8.468;2022-10-16T01:19:18;12.80;99.90
22065;DHT22;11197;53.110;8.468;2022-10-16T01:21:47;12.80;99.90
22065;DHT22;11197;53.110;8.468;2022-10-16T01:32:28;12.70;99.90
22065;DHT22;11197;53.110;8.468;2022-10-16T01:35:07;12.70;99.90
22065;DHT22;11197;53.110;8.468;2022-10-16T01:37:41;12.70;99.90
22065;DHT22;11197;53.110;8.468;2022-10-16T01:40:12;12.60;99.90
22065;DHT22;11197;53.110;8.468;2022-10-16T01:42:42;12.60;99.90
22065;DHT22;11197;53.110;8.468;2022-10-16T01:45:10;12.60;99.90
22065;DHT22;11197;53.110;8.468;2022-10-16T01:47:39;12.60;99.90
22065;DHT22;11197;53.110;8.468;2022-10-16T01:50:06;12.60;99.90
22065;DHT22;11197;53.110;8.468;2022-10-16T01:52:36;12.60;99.90
22065;DHT22;11197;53.110;8.468;2022-10-16T01:55:05;12.60;99.90
22065;DHT22;11197;53.110;8.468;2022-10-16T01:57:32;12.50;99.90
22065;DHT22;11197;53.110;8.468;2022-10-16T02:00:04;12.60;99.90
22065;DHT22;11197;53.110;8.468;2022-10-16T02:02:42;12.60;99.90
22065;DHT22;11197;53.110;8.468;2022-10-16T02:05:34;12.60;99.90
22065;DHT22;11197;53.110;8.468;2022-10-16T02:08:03;12.60;99.90
22065;DHT22;11197;53.110;8.468;2022-10-16T02:10:29;12.50;99.90
22065;DHT22;11197;53.110;8.468;2022-10-16T02:13:06;12.60;99.90
22065;DHT22;11197;53.110;8.468;2022-10-16T02:15:34;12.50;99.90
22065;DHT22;11197;53.110;8.468;2022-10-16T02:18:02;12.60;99.90
22065;DHT22;11197;53.110;8.468;2022-10-16T02:20:34;12.60;99.90
22065;DHT22;11197;53.110;8.468;2022-10-16T02:23:03;12.60;99.90
22065;DHT22;11197;53.110;8.468;2022-10-16T02:25:37;12.60;99.90
22065;DHT22;11197;53.110;8.468;2022-10-16T02:28:19;12.60;99.90
22065;DHT22;11197;53.110;8.468;2022-10-16T02:30:56;12.60;99.90
22065;DHT22;11197;53.110;8.468;2022-10-16T02:33:25;12.60;99.90
22065;DHT22;11197;53.110;8.468;2022-10-16T02:35:52;12.50;99.90
22065;DHT22;11197;53.110;8.468;2022-10-16T02:38:20;12.60;99.90
22065;DHT22;11197;53.110;8.468;2022-10-16T02:40:47;12.60;99.90
22065;DHT22;11197;53.110;8.468;2022-10-16T02:43:13;12.60;99.90
22065;DHT22;11197;53.110;8.468;2022-10-16T02:45:39;12.60;99.90
22065;DHT22;11197;53.110;8.468;2022-10-16T02:48:05;12.60;99.90
22065;DHT22;11197;53.110;8.468;2022-10-16T02:50:31;12.60;99.90
22065;DHT22;11197;53.110;8.468;2022-10-16T02:52:57;12.60;99.90
22065;DHT22;11197;53.110;8.468;2022-10-16T02:55:26;12.60;99.90
22065;DHT22;11197;53.110;8.468;2022-10-16T02:57:54;12.60;99.90
22065;DHT22;11197;53.110;8.468;2022-10-16T03:00:20;12.60;99.90
22065;DHT22;11197;53.110;8.468;2022-10-16T03:02:49;12.60;99.90
22065;DHT22;11197;53.110;8.468;2022-10-16T03:05:16;12.60;99.90
22065;DHT22;11197;53.110;8.468;2022-10-16T03:07:42;12.60;99.90
22065;DHT22;11197;53.110;8.468;2022-10-16T03:10:08;12.60;99.90
22065;DHT22;11197;53.110;8.468;2022-10-16T03:12:34;12.60;99.90
22065;DHT22;11197;53.110;8.468;2022-10-16T03:15:00;12.60;99.90
22065;DHT22;11197;53.110;8.468;2022-10-16T03:17:26;12.60;99.90
22065;DHT22;11197;53.110;8.468;2022-10-16T03:19:52;12.60;99.90
22065;DHT22;11197;53.110;8.468;2022-10-16T03:22:18;12.60;99.90
22065;DHT22;11197;53.110;8.468;2022-10-16T03:24:43;12.60;99.90
22065;DHT22;11197;53.110;8.468;2022-10-16T03:27:09;12.60;99.90
22065;DHT22;11197;53.110;8.468;2022-10-16T03:29:35;12.60;99.90
22065;DHT22;11197;53.110;8.468;2022-10-16T03:32:02;12.60;99.90
22065;DHT22;11197;53.110;8.468;2022-10-16T03:34:28;12.60;99.90
22065;DHT22;11197;53.110;8.468;2022-10-16T03:36:53;12.60;99.90
22065;DHT22;11197;53.110;8.468;2022-10-16T03:39:19;12.60;99.90
22065;DHT22;11197;53.110;8.468;2022-10-16T03:41:45;12.60;99.90
22065;DHT22;11197;53.110;8.468;2022-10-16T03:44:12;12.60;99.90
22065;DHT22;11197;53.110;8.468;2022-10-16T03:46:38;12.60;99.90
22065;DHT22;11197;53.110;8.468;2022-10-16T03:49:04;12.60;99.90
22065;DHT22;11197;53.110;8.468;2022-10-16T03:51:30;12.60;99.90
22065;DHT22;11197;53.110;8.468;2022-10-16T03:53:56;12.60;99.90
22065;DHT22;11197;53.110;8.468;2022-10-16T03:56:22;12.50;99.90
22065;DHT22;11197;53.110;8.468;2022-10-16T03:58:48;12.50;99.90
22065;DHT22;11197;53.110;8.468;2022-10-16T04:01:15;12.50;99.90
22065;DHT22;11197;53.110;8.468;2022-10-16T04:03:43;12.50;99.90
22065;DHT22;11197;53.110;8.468;2022-10-16T04:06:09;12.50;99.90
22065;DHT22;11197;53.110;8.468;2022-10-16T04:08:35;12.50;99.90
22065;DHT22;11197;53.110;8.468;2022-10-16T04:11:02;12.50;99.90
22065;DHT22;11197;53.110;8.468;2022-10-16T04:13:28;12.50;99.90
22065;DHT22;11197;53.110;8.468;2022-10-16T04:15:54;12.50;99.90
22065;DHT22;11197;53.110;8.468;2022-10-16T04:18:21;12.50;99.90
22065;DHT22;11197;53.110;8.468;2022-10-16T04:20:46;12.50;99.90
22065;DHT22;11197;53.110;8.468;2022-10-16T04:23:12;12.50;99.90
22065;DHT22;11197;53.110;8.468;2022-10-16T04:25:38;12.50;99.90
22065;DHT22;11197;53.110;8.468;2022-10-16T04:28:10;12.60;99.90
22065;DHT22;11197;53.110;8.468;2022-10-16T04:30:38;12.50;99.90
22065;DHT22;11197;53.110;8.468;2022-10-16T04:33:05;12.60;99.90
22065;DHT22;11197;53.110;8.468;2022-10-16T04:35:30;12.60;99.90
22065;DHT22;11197;53.110;8.468;2022-10-16T04:37:59;12.60;99.90
22065;DHT22;11197;53.110;8.468;2022-10-16T04:40:25;12.70;99.90
22065;DHT22;11197;53.110;8.468;2022-10-16T04:42:51;12.70;99.90
22065;DHT22;11197;53.110;8.468;2022-10-16T04:45:18;12.70;99.90
22065;DHT22;11197;53.110;8.468;2022-10-16T04:47:44;12.70;99.90
22065;DHT22;11197;53.110;8.468;2022-10-16T04:50:09;12.70;99.90
22065;DHT22;11197;53.110;8.468;2022-10-16T04:52:36;12.70;99.90
22065;DHT22;11197;53.110;8.468;2022-10-16T04:55:02;12.70;99.90
22065;DHT22;11197;53.110;8.468;2022-10-16T04:57:29;12.70;99.90
22065;DHT22;11197;53.110;8.468;2022-10-16T04:59:55;12.80;99.90
22065;DHT22;11197;53.110;8.468;2022-10-16T05:02:25;12.80;99.90
22065;DHT22;11197;53.110;8.468;2022-10-16T05:04:51;12.80;99.90
22065;DHT22;11197;53.110;8.468;2022-10-16T05:07:17;12.80;99.90
22065;DHT22;11197;53.110;8.468;2022-10-16T05:09:43;12.80;99.90
22065;DHT22;11197;53.110;8.468;2022-10-16T05:12:09;12.80;99.90
22065;DHT22;11197;53.110;8.468;2022-10-16T05:14:35;12.80;99.90
22065;DHT22;11197;53.110;8.468;2022-10-16T05:17:01;12.80;99.90
22065;DHT22;11197;53.110;8.468;2022-10-16T05:19:27;12.80;99.90
22065;DHT22;11197;53.110;8.468;2022-10-16T05:21:53;12.80;99.90
22065;DHT22;11197;53.110;8.468;2022-10-16T05:24:19;12.80;99.90
22065;DHT22;11197;53.110;8.468;2022-10-16T05:26:44;12.80;99.90
22065;DHT22;11197;53.110;8.468;2022-10-16T05:29:10;12.90;99.90
22065;DHT22;11197;53.110;8.468;2022-10-16T05:31:36;12.80;99.90
22065;DHT22;11197;53.110;8.468;2022-10-16T05:34:03;12.80;99.90
22065;DHT22;11197;53.110;8.468;2022-10-16T05:36:28;12.90;99.90
22065;DHT22;11197;53.110;8.468;2022-10-16T05:38:54;12.80;99.90
22065;DHT22;11197;53.110;8.468;2022-10-16T05:41:20;12.80;99.90
22065;DHT22;11197;53.110;8.468;2022-10-16T05:43:50;12.80;99.90
22065;DHT22;11197;53.110;8.468;2022-10-16T05:46:16;12.80;99.90
22065;DHT22;11197;53.110;8.468;2022-10-16T05:48:43;12.90;99.90
22065;DHT22;11197;53.110;8.468;2022-10-16T05:51:13;12.80;99.90
22065;DHT22;11197;53.110;8.468;2022-10-16T05:53:41;12.80;99.90
22065;DHT22;11197;53.110;8.468;2022-10-16T05:56:09;12.80;99.90
22065;DHT22;11197;53.110;8.468;2022-10-16T05:58:37;12.80;99.90
22065;DHT22;11197;53.110;8.468;2022-10-16T06:01:05;12.80;99.90
22065;DHT22;11197;53.110;8.468;2022-10-16T06:03:33;12.80;99.90
22065;DHT22;11197;53.110;8.468;2022-10-16T06:05:59;12.80;99.90
22065;DHT22;11197;53.110;8.468;2022-10-16T06:08:32;12.80;99.90
22065;DHT22;11197;53.110;8.468;2022-10-16T06:11:06;12.80;99.90
22065;DHT22;11197;53.110;8.468;2022-10-16T06:13:32;12.80;99.90
22065;DHT22;11197;53.110;8.468;2022-10-16T06:15:59;12.80;99.90
22065;DHT22;11197;53.110;8.468;2022-10-16T06:18:26;12.80;99.90
22065;DHT22;11197;53.110;8.468;2022-10-16T06:20:54;12.80;99.90
22065;DHT22;11197;53.110;8.468;2022-10-16T06:23:21;12.80;99.90
22065;DHT22;11197;53.110;8.468;2022-10-16T06:25:47;12.80;99.90
22065;DHT22;11197;53.110;8.468;2022-10-16T06:28:14;12.80;99.90
22065;DHT22;11197;53.110;8.468;2022-10-16T06:30:41;12.80;99.90
22065;DHT22;11197;53.110;8.468;2022-10-16T06:33:10;12.70;99.90
22065;DHT22;11197;53.110;8.468;2022-10-16T06:35:36;12.70;99.90
22065;DHT22;11197;53.110;8.468;2022-10-16T06:38:03;12.80;99.90
22065;DHT22;11197;53.110;8.468;2022-10-16T06:40:29;12.80;99.90
22065;DHT22;11197;53.110;8.468;2022-10-16T06:42:55;12.70;99.90
22065;DHT22;11197;53.110;8.468;2022-10-16T06:45:21;12.70;99.90
22065;DHT22;11197;53.110;8.468;2022-10-16T06:47:47;12.70;99.90
22065;DHT22;11197;53.110;8.468;2022-10-16T06:50:13;12.70;99.90
22065;DHT22;11197;53.110;8.468;2022-10-16T06:52:39;12.70;99.90
22065;DHT22;11197;53.110;8.468;2022-10-16T06:55:06;12.70;99.90
22065;DHT22;11197;53.110;8.468;2022-10-16T06:57:32;12.70;99.90
22065;DHT22;11197;53.110;8.468;2022-10-16T06:59:58;12.70;99.90
22065;DHT22;11197;53.110;8.468;2022-10-16T07:02:24;12.70;99.90
22065;DHT22;11197;53.110;8.468;2022-10-16T07:04:50;12.70;99.90
22065;DHT22;11197;53.110;8.468;2022-10-16T07:07:16;12.70;99.90
22065;DHT22;11197;53.110;8.468;2022-10-16T07:09:42;12.70;99.90
22065;DHT22;11197;53.110;8.468;2022-10-16T07:12:07;12.70;99.90
22065;DHT22;11197;53.110;8.468;2022-10-16T07:14:33;12.70;99.90
22065;DHT22;11197;53.110;8.468;2022-10-16T07:16:59;12.70;99.90
22065;DHT22;11197;53.110;8.468;2022-10-16T07:19:25;12.70;99.90
22065;DHT22;11197;53.110;8.468;2022-10-16T07:21:51;12.80;99.90
22065;DHT22;11197;53.110;8.468;2022-10-16T07:24:17;12.70;99.90
22065;DHT22;11197;53.110;8.468;2022-10-16T07:26:45;12.80;99.90
22065;DHT22;11197;53.110;8.468;2022-10-16T07:29:14;12.80;99.90
22065;DHT22;11197;53.110;8.468;2022-10-16T07:31:41;12.80;99.90
22065;DHT22;11197;53.110;8.468;2022-10-16T07:34:10;12.80;99.90
22065;DHT22;11197;53.110;8.468;2022-10-16T07:36:49;12.80;99.90
22065;DHT22;11197;53.110;8.468;2022-10-16T07:39:21;12.80;99.90
22065;DHT22;11197;53.110;8.468;2022-10-16T07:41:48;12.90;99.90
22065;DHT22;11197;53.110;8.468;2022-10-16T07:44:15;12.80;99.90
22065;DHT22;11197;53.110;8.468;2022-10-16T07:46:42;12.90;99.90
22065;DHT22;11197;53.110;8.468;2022-10-16T07:49:09;12.90;99.90
22065;DHT22;11197;53.110;8.468;2022-10-16T07:51:35;12.90;99.90
22065;DHT22;11197;53.110;8.468;2022-10-16T07:54:01;13.00;99.90
22065;DHT22;11197;53.110;8.468;2022-10-16T07:56:27;13.00;99.90
22065;DHT22;11197;53.110;8.468;2022-10-16T07:58:53;13.10;99.90
22065;DHT22;11197;53.110;8.468;2022-10-16T08:01:24;13.10;99.90
22065;DHT22;11197;53.110;8.468;2022-10-16T08:03:50;13.10;99.90
22065;DHT22;11197;53.110;8.468;2022-10-16T08:06:18;13.20;99.90
22065;DHT22;11197;53.110;8.468;2022-10-16T08:08:47;13.20;99.90
22065;DHT22;11197;53.110;8.468;2022-10-16T08:11:13;13.20;99.90
22065;DHT22;11197;53.110;8.468;2022-10-16T08:13:41;13.30;99.90
22065;DHT22;11197;53.110;8.468;2022-10-16T08:16:07;13.30;99.90
22065;DHT22;11197;53.110;8.468;2022-10-16T08:18:38;13.30;99.90
22065;DHT22;11197;53.110;8.468;2022-10-16T08:21:05;13.40;99.90
22065;DHT22;11197;53.110;8.468;2022-10-16T08:23:33;13.40;99.90
22065;DHT22;11197;53.110;8.468;2022-10-16T08:26:05;13.50;99.90
22065;DHT22;11197;53.110;8.468;2022-10-16T08:28:31;13.50;99.90
22065;DHT22;11197;53.110;8.468;2022-10-16T08:31:08;13.60;99.90
22065;DHT22;11197;53.110;8.468;2022-10-16T08:33:34;13.60;99.90
22065;DHT22;11197;53.110;8.468;2022-10-16T08:36:01;13.70;99.90
22065;DHT22;11197;53.110;8.468;2022-10-16T08:38:27;13.80;99.90
22065;DHT22;11197;53.110;8.468;2022-10-16T08:46:35;14.10;99.90
22065;DHT22;11197;53.110;8.468;2022-10-16T08:49:05;14.20;99.90
22065;DHT22;11197;53.110;8.468;2022-10-16T08:51:36;14.20;99.90
22065;DHT22;11197;53.110;8.468;2022-10-16T08:56:48;14.20;99.90
22065;DHT22;11197;53.110;8.468;2022-10-16T08:59:14;14.20;99.90
22065;DHT22;11197;53.110;8.468;2022-10-16T09:01:45;14.20;99.90
22065;DHT22;11197;53.110;8.468;2022-10-16T09:12:31;14.50;99.90
22065;DHT22;11197;53.110;8.468;2022-10-16T09:18:04;14.60;99.90
22065;DHT22;11197;53.110;8.468;2022-10-16T09:25:31;14.80;99.90
22065;DHT22;11197;53.110;8.468;2022-10-16T09:27:58;14.70;99.90
22065;DHT22;11197;53.110;8.468;2022-10-16T09:30:27;14.90;99.90
22065;DHT22;11197;53.110;8.468;2022-10-16T09:32:54;14.90;99.90
22065;DHT22;11197;53.110;8.468;2022-10-16T09:35:31;14.90;99.90
22065;DHT22;11197;53.110;8.468;2022-10-16T09:37:58;14.90;99.90
22065;DHT22;11197;53.110;8.468;2022-10-16T09:43:03;15.00;99.90
22065;DHT22;11197;53.110;8.468;2022-10-16T09:45:31;14.90;99.90
22065;DHT22;11197;53.110;8.468;2022-10-16T09:48:00;14.90;99.90
22065;DHT22;11197;53.110;8.468;2022-10-16T09:50:28;14.90;99.90
22065;DHT22;11197;53.110;8.468;2022-10-16T09:53:08;15.00;99.90
22065;DHT22;11197;53.110;8.468;2022-10-16T09:55:36;15.00;99.90
22065;DHT22;11197;53.110;8.468;2022-10-16T09:58:13;15.00;99.90
22065;DHT22;11197;53.110;8.468;2022-10-16T10:00:42;15.10;99.90
22065;DHT22;11197;53.110;8.468;2022-10-16T10:06:00;15.20;99.90
22065;DHT22;11197;53.110;8.468;2022-10-16T10:08:28;15.20;99.90
22065;DHT22;11197;53.110;8.468;2022-10-16T10:10:57;15.30;99.90
22065;DHT22;11197;53.110;8.468;2022-10-16T10:13:24;15.30;99.90
22065;DHT22;11197;53.110;8.468;2022-10-16T10:15:53;15.30;99.90
22065;DHT22;11197;53.110;8.468;2022-10-16T10:18:21;15.30;99.90
22065;DHT22;11197;53.110;8.468;2022-10-16T10:21:02;15.30;99.90
22065;DHT22;11197;53.110;8.468;2022-10-16T10:23:29;15.40;99.90
22065;DHT22;11197;53.110;8.468;2022-10-16T10:31:56;15.50;99.90
22065;DHT22;11197;53.110;8.468;2022-10-16T10:35:07;15.50;99.90
22065;DHT22;11197;53.110;8.468;2022-10-16T10:38:25;15.60;99.90
22065;DHT22;11197;53.110;8.468;2022-10-16T10:40:53;15.60;99.90
22065;DHT22;11197;53.110;8.468;2022-10-16T10:46:32;15.60;99.90
22065;DHT22;11197;53.110;8.468;2022-10-16T10:57:23;15.80;99.90
22065;DHT22;11197;53.110;8.468;2022-10-16T11:00:20;15.80;99.90
22065;DHT22;11197;53.110;8.468;2022-10-16T11:05:45;15.90;99.90
22065;DHT22;11197;53.110;8.468;2022-10-16T11:08:29;15.90;99.90
22065;DHT22;11197;53.110;8.468;2022-10-16T11:11:02;15.90;99.90
22065;DHT22;11197;53.110;8.468;2022-10-16T11:16:09;15.90;99.90
22065;DHT22;11197;53.110;8.468;2022-10-16T11:21:39;16.00;99.90
22065;DHT22;11197;53.110;8.468;2022-10-16T11:24:19;16.00;99.90
22065;DHT22;11197;53.110;8.468;2022-10-16T11:26:49;16.10;99.90
22065;DHT22;11197;53.110;8.468;2022-10-16T11:29:30;16.10;99.90
22065;DHT22;11197;53.110;8.468;2022-10-16T11:32:05;16.20;99.90
22065;DHT22;11197;53.110;8.468;2022-10-16T11:34:36;16.30;99.90
22065;DHT22;11197;53.110;8.468;2022-10-16T11:37:20;16.30;99.90
22065;DHT22;11197;53.110;8.468;2022-10-16T11:39:50;16.30;99.90
22065;DHT22;11197;53.110;8.468;2022-10-16T11:42:32;16.40;99.90
22065;DHT22;11197;53.110;8.468;2022-10-16T11:48:18;16.40;99.90
22065;DHT22;11197;53.110;8.468;2022-10-16T11:53:58;16.50;99.90
22065;DHT22;11197;53.110;8.468;2022-10-16T11:56:26;16.50;99.90
22065;DHT22;11197;53.110;8.468;2022-10-16T12:05:12;16.60;99.90
22065;DHT22;11197;53.110;8.468;2022-10-16T12:07:48;16.60;99.90
22065;DHT22;11197;53.110;8.468;2022-10-16T12:10:26;16.60;99.90
22065;DHT22;11197;53.110;8.468;2022-10-16T12:12:52;16.70;99.90
22065;DHT22;11197;53.110;8.468;2022-10-16T12:17:50;16.70;99.90
22065;DHT22;11197;53.110;8.468;2022-10-16T12:20:28;16.80;99.90
22065;DHT22;11197;53.110;8.468;2022-10-16T12:23:00;16.70;99.90
22065;DHT22;11197;53.110;8.468;2022-10-16T12:28:15;16.70;99.90
22065;DHT22;11197;53.110;8.468;2022-10-16T12:30:51;16.70;99.90
22065;DHT22;11197;53.110;8.468;2022-10-16T12:33:26;16.70;99.90
22065;DHT22;11197;53.110;8.468;2022-10-16T12:35:53;16.70;99.90
22065;DHT22;11197;53.110;8.468;2022-10-16T12:39:16;16.80;99.90
22065;DHT22;11197;53.110;8.468;2022-10-16T12:41:28;16.80;99.90
22065;DHT22;11197;53.110;8.468;2022-10-16T12:43:54;16.80;99.90
22065;DHT22;11197;53.110;8.468;2022-10-16T12:46:37;16.80;99.90
22065;DHT22;11197;53.110;8.468;2022-10-16T12:49:21;16.90;99.90
22065;DHT22;11197;53.110;8.468;2022-10-16T12:51:48;16.90;99.90
22065;DHT22;11197;53.110;8.468;2022-10-16T12:54:49;16.80;99.90
22065;DHT22;11197;53.110;8.468;2022-10-16T12:57:22;16.80;99.90
22065;DHT22;11197;53.110;8.468;2022-10-16T12:59:59;16.70;99.90
22065;DHT22;11197;53.110;8.468;2022-10-16T13:09:04;16.70;99.90
22065;DHT22;11197;53.110;8.468;2022-10-16T13:25:26;16.80;99.90
22065;DHT22;11197;53.110;8.468;2022-10-16T13:28:03;16.80;99.90
22065;DHT22;11197;53.110;8.468;2022-10-16T13:30:39;16.80;99.90
22065;DHT22;11197;53.110;8.468;2022-10-16T13:33:19;16.80;99.90
22065;DHT22;11197;53.110;8.468;2022-10-16T13:35:51;16.80;99.90
22065;DHT22;11197;53.110;8.468;2022-10-16T13:38:26;16.90;99.90
22065;DHT22;11197;53.110;8.468;2022-10-16T13:41:12;16.80;99.90
22065;DHT22;11197;53.110;8.468;2022-10-16T13:43:50;16.90;99.90
22065;DHT22;11197;53.110;8.468;2022-10-16T13:46:19;16.90;99.90
22065;DHT22;11197;53.110;8.468;2022-10-16T13:48:59;16.90;99.90
22065;DHT22;11197;53.110;8.468;2022-10-16T13:51:26;16.90;99.90
22065;DHT22;11197;53.110;8.468;2022-10-16T13:53:54;16.80;99.90
22065;DHT22;11197;53.110;8.468;2022-10-16T13:56:26;16.80;99.90
22065;DHT22;11197;53.110;8.468;2022-10-16T13:59:22;16.80;99.90
22065;DHT22;11197;53.110;8.468;2022-10-16T14:01:49;16.80;99.90
22065;DHT22;11197;53.110;8.468;2022-10-16T14:04:16;16.80;99.90
22065;DHT22;11197;53.110;8.468;2022-10-16T14:06:44;16.70;99.90
22065;DHT22;11197;53.110;8.468;2022-10-16T14:11:54;16.80;99.90
22065;DHT22;11197;53.110;8.468;2022-10-16T14:14:22;16.80;99.90
22065;DHT22;11197;53.110;8.468;2022-10-16T14:16:49;16.80;99.90
22065;DHT22;11197;53.110;8.468;2022-10-16T14:19:27;16.80;99.90
22065;DHT22;11197;53.110;8.468;2022-10-16T14:21:53;16.90;99.90
22065;DHT22;11197;53.110;8.468;2022-10-16T14:26:57;16.90;99.90
22065;DHT22;11197;53.110;8.468;2022-10-16T14:29:25;16.90;99.90
22065;DHT22;11197;53.110;8.468;2022-10-16T14:32:02;16.90;99.90
22065;DHT22;11197;53.110;8.468;2022-10-16T14:37:10;16.90;99.90
22065;DHT22;11197;53.110;8.468;2022-10-16T14:39:39;16.90;99.90
22065;DHT22;11197;53.110;8.468;2022-10-16T14:42:14;17.00;99.90
22065;DHT22;11197;53.110;8.468;2022-10-16T14:44:43;16.90;99.90
22065;DHT22;11197;53.110;8.468;2022-10-16T14:47:16;16.90;99.90
22065;DHT22;11197;53.110;8.468;2022-10-16T14:49:50;16.90;99.90
22065;DHT22;11197;53.110;8.468;2022-10-16T14:52:17;16.90;99.90
22065;DHT22;11197;53.110;8.468;2022-10-16T14:54:43;16.90;99.90
22065;DHT22;11197;53.110;8.468;2022-10-16T14:57:23;16.90;99.90
22065;DHT22;11197;53.110;8.468;2022-10-16T14:59:50;16.90;99.90
22065;DHT22;11197;53.110;8.468;2022-10-16T15:04:50;16.90;99.90
22065;DHT22;11197;53.110;8.468;2022-10-16T15:07:17;16.90;99.90
22065;DHT22;11197;53.110;8.468;2022-10-16T15:09:43;16.90;99.90
22065;DHT22;11197;53.110;8.468;2022-10-16T15:12:09;16.80;99.90
22065;DHT22;11197;53.110;8.468;2022-10-16T15:14:35;16.80;99.90
22065;DHT22;11197;53.110;8.468;2022-10-16T15:17:01;16.80;99.90
22065;DHT22;11197;53.110;8.468;2022-10-16T15:19:27;16.80;99.90
22065;DHT22;11197;53.110;8.468;2022-10-16T15:21:59;16.80;99.90
22065;DHT22;11197;53.110;8.468;2022-10-16T15:24:31;16.80;99.90
22065;DHT22;11197;53.110;8.468;2022-10-16T15:27:04;16.80;99.90
22065;DHT22;11197;53.110;8.468;2022-10-16T15:29:44;16.80;99.90
22065;DHT22;11197;53.110;8.468;2022-10-16T15:32:10;16.70;99.90
22065;DHT22;11197;53.110;8.468;2022-10-16T15:34:36;16.70;99.90
22065;DHT22;11197;53.110;8.468;2022-10-16T15:37:03;16.60;99.90
22065;DHT22;11197;53.110;8.468;2022-10-16T15:39:29;16.60;99.90
22065;DHT22;11197;53.110;8.468;2022-10-16T15:41:55;16.60;99.90
22065;DHT22;11197;53.110;8.468;2022-10-16T15:44:21;16.60;99.90
22065;DHT22;11197;53.110;8.468;2022-10-16T15:46:55;16.60;99.90
22065;DHT22;11197;53.110;8.468;2022-10-16T15:49:22;16.50;99.90
22065;DHT22;11197;53.110;8.468;2022-10-16T15:51:48;16.50;99.90
22065;DHT22;11197;53.110;8.468;2022-10-16T15:54:13;16.50;99.90
22065;DHT22;11197;53.110;8.468;2022-10-16T15:56:39;16.50;99.90
22065;DHT22;11197;53.110;8.468;2022-10-16T15:59:07;16.50;99.90
22065;DHT22;11197;53.110;8.468;2022-10-16T16:01:34;16.40;99.90
22065;DHT22;11197;53.110;8.468;2022-10-16T16:04:05;16.40;99.90
22065;DHT22;11197;53.110;8.468;2022-10-16T16:06:39;16.40;99.90
22065;DHT22;11197;53.110;8.468;2022-10-16T16:12:07;16.80;99.90
22065;DHT22;11197;53.110;8.468;2022-10-16T16:14:36;16.80;99.90
22065;DHT22;11197;53.110;8.468;2022-10-16T16:17:14;16.80;99.90
22065;DHT22;11197;53.110;8.468;2022-10-16T16:19:41;16.70;99.90
22065;DHT22;11197;53.110;8.468;2022-10-16T16:22:07;16.60;99.90
22065;DHT22;11197;53.110;8.468;2022-10-16T16:24:33;16.50;99.90
22065;DHT22;11197;53.110;8.468;2022-10-16T16:26:59;16.40;99.90
22065;DHT22;11197;53.110;8.468;2022-10-16T16:29:25;16.30;99.90
22065;DHT22;11197;53.110;8.468;2022-10-16T16:31:51;16.30;99.90
22065;DHT22;11197;53.110;8.468;2022-10-16T16:34:26;16.20;99.90
22065;DHT22;11197;53.110;8.468;2022-10-16T16:36:53;16.10;99.90
22065;DHT22;11197;53.110;8.468;2022-10-16T16:39:19;16.00;99.90
22065;DHT22;11197;53.110;8.468;2022-10-16T16:41:45;15.90;99.90
22065;DHT22;11197;53.110;8.468;2022-10-16T16:44:12;15.90;99.90
22065;DHT22;11197;53.110;8.468;2022-10-16T16:46:39;15.80;99.90
22065;DHT22;11197;53.110;8.468;2022-10-16T16:49:06;15.70;99.90
22065;DHT22;11197;53.110;8.468;2022-10-16T16:51:32;15.70;99.90
22065;DHT22;11197;53.110;8.468;2022-10-16T16:53:59;15.60;99.90
22065;DHT22;11197;53.110;8.468;2022-10-16T16:56:25;15.50;99.90
22065;DHT22;11197;53.110;8.468;2022-10-16T16:58:54;15.60;99.90
22065;DHT22;11197;53.110;8.468;2022-10-16T17:01:23;15.50;99.90
22065;DHT22;11197;53.110;8.468;2022-10-16T17:03:50;15.40;99.90
22065;DHT22;11197;53.110;8.468;2022-10-16T17:06:20;15.30;99.90
22065;DHT22;11197;53.110;8.468;2022-10-16T17:08:47;15.30;99.90
22065;DHT22;11197;53.110;8.468;2022-10-16T17:11:21;15.30;99.90
22065;DHT22;11197;53.110;8.468;2022-10-16T17:13:48;15.20;99.90
22065;DHT22;11197;53.110;8.468;2022-10-16T17:16:15;15.10;99.90
22065;DHT22;11197;53.110;8.468;2022-10-16T17:18:41;15.10;99.90
22065;DHT22;11197;53.110;8.468;2022-10-16T17:21:09;15.00;99.90
22065;DHT22;11197;53.110;8.468;2022-10-16T17:23:36;14.90;99.90
22065;DHT22;11197;53.110;8.468;2022-10-16T17:26:16;14.90;99.90
22065;DHT22;11197;53.110;8.468;2022-10-16T17:28:44;14.80;99.90
22065;DHT22;11197;53.110;8.468;2022-10-16T17:31:16;14.70;99.90
22065;DHT22;11197;53.110;8.468;2022-10-16T17:33:42;14.70;99.90
22065;DHT22;11197;53.110;8.468;2022-10-16T17:36:09;14.60;99.90
22065;DHT22;11197;53.110;8.468;2022-10-16T17:38:36;14.60;99.90
22065;DHT22;11197;53.110;8.468;2022-10-16T17:41:17;14.60;99.90